Time;durP1;ratioP1;P1;durP2;ratioP2;P2;SDS_P1;SDS_P2;PMS_P1;PMS_P2;Temp;Humidity;BMP_temperature;BMP_pressure;BME280_temperature;BME280_humidity;BME280_pressure;Samples;Min_cycle;Max_cycle;Signal;HPM_P1;HPM_P2
2022/10/14 00:00:33;;;;;;;36.70;20.23;;;;;;;11.10;100.00;99480.92;4365926;81;28548;-79
2022/10/14 00:06:37;;;;;;;37.10;21.12;;;;;;;10.91;100.00;99477.38;4333008;80;28618;-81
2022/10/14 00:12:38;;;;;;;35.68;18.42;;;;;;;10.85;100.00;99476.40;4305886;81;28512;-79
2022/10/14 00:18:40;;;;;;;34.50;18.60;;;;;;;10.81;100.00;99475.72;4306251;81;28558;-78
2022/10/14 00:24:41;;;;;;;36.55;18.87;;;;;;;10.78;100.00;99475.66;4305882;81;28577;-79
2022/10/14 00:30:59;;;;;;;34.25;18.65;;;;;;;11.05;100.00;99475.92;4279289;81;28599;-79
2022/10/14 00:37:00;;;;;;;38.45;20.48;;;;;;;11.23;100.00;99472.40;4257908;82;28515;-79
2022/10/14 00:43:02;;;;;;;33.38;18.17;;;;;;;11.26;100.00;99466.56;4273230;83;28618;-79
2022/10/14 00:49:32;;;;;;;33.42;19.27;;;;;;;11.45;100.00;99460.63;4197838;84;28456;-79
2022/10/14 00:55:33;;;;;;;36.08;18.92;;;;;;;11.52;100.00;99456.52;4239005;82;28564;-79
2022/10/14 01:01:36;;;;;;;34.85;20.50;;;;;;;11.65;100.00;99448.27;4271645;82;28515;-78
2022/10/14 01:08:08;;;;;;;39.53;19.98;;;;;;;11.55;100.00;99442.59;4196862;83;28672;-80
2022/10/14 01:14:31;;;;;;;35.10;18.70;;;;;;;11.41;100.00;99446.81;4239964;82;28603;-78
2022/10/14 01:20:53;;;;;;;33.35;19.48;;;;;;;11.58;100.00;99444.31;4176105;84;28594;-79
2022/10/14 01:27:24;;;;;;;30.30;18.27;;;;;;;11.89;100.00;99438.91;4211286;82;28468;-78
2022/10/14 01:33:30;;;;;;;32.20;19.17;;;;;;;11.67;100.00;99428.65;4211084;83;28521;-80
2022/10/14 01:39:39;;;;;;;38.55;21.30;;;;;;;11.52;100.00;99433.09;4233953;83;28630;-79
2022/10/14 01:45:43;;;;;;;34.95;19.52;;;;;;;12.13;100.00;99433.08;4237110;83;28546;-79
2022/10/14 01:51:50;;;;;;;38.53;20.50;;;;;;;12.13;100.00;99419.61;4252419;82;28539;-77
2022/10/14 01:57:54;;;;;;;34.90;20.15;;;;;;;12.32;100.00;99415.47;4285394;82;28593;-79
2022/10/14 02:03:56;;;;;;;33.83;19.40;;;;;;;12.51;100.00;99418.88;4269741;82;28470;-80
2022/10/14 02:10:27;;;;;;;34.23;20.17;;;;;;;12.50;100.00;99416.42;4275964;82;28539;-80
2022/10/14 02:16:57;;;;;;;32.95;18.00;;;;;;;12.60;100.00;99411.78;4150855;85;28497;-81
2022/10/14 02:23:11;;;;;;;34.80;18.62;;;;;;;12.55;100.00;99407.92;4155806;85;28576;-80
2022/10/14 02:29:12;;;;;;;27.62;16.52;;;;;;;12.51;100.00;99399.19;4140917;85;28543;-80
2022/10/14 02:35:18;;;;;;;30.72;17.10;;;;;;;12.78;100.00;99388.72;4134721;85;28508;-79
2022/10/14 02:41:23;;;;;;;31.23;18.43;;;;;;;12.48;100.00;99390.20;4105735;85;34161;-80
2022/10/14 02:47:25;;;;;;;36.17;17.85;;;;;;;12.78;100.00;99388.72;4135571;84;28550;-77
2022/10/14 02:53:26;;;;;;;24.50;16.17;;;;;;;12.53;100.00;99390.33;4149698;85;28549;-78
2022/10/14 02:59:28;;;;;;;33.85;17.85;;;;;;;12.26;100.00;99386.73;4094110;85;28591;-78
2022/10/14 03:05:30;;;;;;;30.27;18.48;;;;;;;12.44;100.00;99380.41;4071026;85;28563;-78
2022/10/14 03:11:31;;;;;;;29.30;17.95;;;;;;;12.69;100.00;99386.09;4135772;84;28621;-77
2022/10/14 03:17:35;;;;;;;29.85;16.87;;;;;;;12.58;100.00;99378.84;4142002;84;28646;-78
2022/10/14 03:23:38;;;;;;;26.27;16.20;;;;;;;12.67;100.00;99390.36;4126175;84;28575;-79
2022/10/14 03:29:39;;;;;;;27.60;15.30;;;;;;;12.47;100.00;99374.56;4152773;83;28566;-78
2022/10/14 03:35:46;;;;;;;;;;;;;;;12.51;100.00;99381.66;4150579;84;28955;-78
2022/10/14 03:41:49;;;;;;;28.65;15.43;;;;;;;12.54;100.00;99383.87;4141696;84;20189;-79
2022/10/14 03:47:53;;;;;;;27.62;15.65;;;;;;;14.30;100.00;99373.65;4167025;84;28511;-80
2022/10/14 03:53:55;;;;;;;29.27;15.75;;;;;;;14.10;100.00;99371.43;4165181;84;28569;-79
2022/10/14 03:59:58;;;;;;;32.15;16.90;;;;;;;13.88;100.00;99364.06;4163352;84;28504;-79
2022/10/14 04:06:02;;;;;;;28.30;16.90;;;;;;;13.88;100.00;99359.20;4137833;83;28626;-78
2022/10/14 04:12:05;;;;;;;30.52;17.12;;;;;;;13.92;100.00;99355.77;4074060;85;28489;-78
2022/10/14 04:18:14;;;;;;;31.05;16.50;;;;;;;13.87;100.00;99359.72;4161135;84;28480;-79
2022/10/14 04:24:16;;;;;;;25.60;15.03;;;;;;;13.97;100.00;99351.49;4141660;84;28501;-80
2022/10/14 04:30:22;;;;;;;22.35;14.38;;;;;;;13.68;100.00;99344.28;4145619;84;28502;-78
2022/10/14 04:36:25;;;;;;;27.20;15.32;;;;;;;13.73;100.00;99343.55;4157826;84;28492;-79
2022/10/14 04:42:26;;;;;;;25.05;14.70;;;;;;;13.62;100.00;99346.08;4142842;84;28570;-78
2022/10/14 04:48:30;;;;;;;25.90;16.10;;;;;;;13.65;100.00;99337.48;4137754;84;28540;-79
2022/10/14 04:54:31;;;;;;;26.42;15.53;;;;;;;13.79;100.00;99337.15;4140437;84;28554;-78
2022/10/14 05:00:34;;;;;;;39.80;21.00;;;;;;;13.80;100.00;99336.11;4145145;84;28534;-79
2022/10/14 05:06:47;;;;;;;37.25;18.50;;;;;;;13.63;100.00;99331.50;4136378;84;28577;-80
2022/10/14 05:12:49;;;;;;;32.42;16.67;;;;;;;13.60;100.00;99335.22;4123227;84;28569;-80
2022/10/14 05:18:56;;;;;;;28.73;16.80;;;;;;;13.80;100.00;99333.41;4095799;85;28533;-80
2022/10/14 05:24:58;;;;;;;35.17;18.80;;;;;;;13.78;100.00;99327.41;4107414;86;28540;-80
2022/10/14 05:31:00;;;;;;;35.52;20.02;;;;;;;14.06;100.00;99333.80;4089009;86;28532;-80
2022/10/14 05:37:02;;;;;;;39.18;21.80;;;;;;;14.21;100.00;99329.98;4102515;86;28531;-77
2022/10/14 05:43:05;;;;;;;45.75;24.12;;;;;;;14.24;100.00;99331.91;4134409;84;28549;-80
2022/10/14 05:49:10;;;;;;;47.25;26.90;;;;;;;14.46;100.00;99334.11;4134415;85;28547;-78
2022/10/14 05:55:12;;;;;;;53.38;28.92;;;;;;;14.42;100.00;99328.93;4107523;84;28584;-77
2022/10/14 06:01:15;;;;;;;58.70;30.55;;;;;;;13.98;100.00;99330.16;4145625;83;28571;-75
2022/10/14 06:07:17;;;;;;;60.80;30.60;;;;;;;13.80;100.00;99332.86;4155327;84;28538;-76
2022/10/14 06:13:19;;;;;;;55.38;31.17;;;;;;;13.82;100.00;99318.28;4130278;84;28540;-76
2022/10/14 06:19:21;;;;;;;61.08;32.90;;;;;;;13.73;100.00;99330.04;4114784;85;28556;-78
2022/10/14 06:25:22;;;;;;;58.25;32.73;;;;;;;14.08;100.00;99335.72;4115163;85;28535;-82
2022/10/14 06:31:26;;;;;;;61.35;32.70;;;;;;;14.30;100.00;99333.08;4160474;84;28503;-79
2022/10/14 06:37:27;;;;;;;58.98;33.33;;;;;;;14.46;100.00;99332.76;4090136;85;28509;-76
2022/10/14 06:43:28;;;;;;;70.55;35.38;;;;;;;14.58;100.00;99330.47;4097261;84;28502;-76
2022/10/14 06:55:22;;;;;;;63.92;33.67;;;;;;;14.98;100.00;99331.25;4524463;76;85016;-77
2022/10/14 07:01:25;;;;;;;60.88;33.42;;;;;;;15.30;100.00;99342.70;4378463;78;28548;-77
2022/10/14 07:07:27;;;;;;;60.55;33.02;;;;;;;15.43;100.00;99335.55;4405362;80;28526;-77
2022/10/14 07:13:28;;;;;;;59.27;32.88;;;;;;;15.46;100.00;99336.90;4324711;80;28477;-80
2022/10/14 07:19:30;;;;;;;56.30;32.65;;;;;;;15.42;100.00;99327.66;4348310;81;28527;-77
2022/10/14 07:25:35;;;;;;;60.33;31.40;;;;;;;15.55;100.00;99327.79;4241669;81;28526;-75
2022/10/14 07:31:37;;;;;;;62.30;31.55;;;;;;;15.68;100.00;99330.63;4317935;81;28529;-76
2022/10/14 07:37:38;;;;;;;63.90;31.82;;;;;;;15.86;100.00;99327.50;4307376;81;28464;-78
2022/10/14 07:43:40;;;;;;;61.13;32.17;;;;;;;16.09;99.34;99329.62;4234347;81;28503;-77
2022/10/14 07:49:42;;;;;;;54.45;29.60;;;;;;;16.14;98.85;99330.99;4339618;81;28540;-78
2022/10/14 07:55:51;;;;;;;53.85;30.80;;;;;;;16.32;98.36;99327.59;4289956;81;28511;-77
2022/10/14 08:01:52;;;;;;;55.85;30.25;;;;;;;16.85;94.87;99328.91;4330106;81;28533;-77
2022/10/14 08:07:55;;;;;;;57.65;32.28;;;;;;;17.34;89.69;99316.05;4313178;81;28556;-77
2022/10/14 08:13:59;;;;;;;59.35;31.60;;;;;;;17.93;86.13;99323.42;4302094;81;28589;-76
2022/10/14 08:20:01;;;;;;;56.10;30.92;;;;;;;18.94;81.31;99326.44;4285435;81;28511;-76
2022/10/14 08:26:03;;;;;;;53.92;30.20;;;;;;;19.14;78.50;99316.55;4302224;81;28520;-78
2022/10/14 08:32:04;;;;;;;61.18;31.90;;;;;;;18.71;80.07;99313.73;4293966;82;28487;-80
2022/10/14 08:38:06;;;;;;;68.52;33.23;;;;;;;18.47;78.68;99314.91;4343330;80;28548;-80
2022/10/14 08:44:22;;;;;;;60.08;33.53;;;;;;;18.75;77.32;99323.00;4311417;82;28509;-79
2022/10/14 08:50:50;;;;;;;64.77;32.30;;;;;;;18.55;79.54;99321.14;4298163;80;28549;-78
2022/10/14 08:56:53;;;;;;;56.75;32.17;;;;;;;19.02;76.52;99323.72;4276241;82;28546;-79
2022/10/14 09:02:56;;;;;;;56.98;31.25;;;;;;;19.46;76.96;99314.72;4326752;81;28516;-79
2022/10/14 09:09:14;;;;;;;59.08;32.42;;;;;;;19.59;74.53;99308.35;4268186;82;28563;-79
2022/10/14 09:15:33;;;;;;;60.78;32.13;;;;;;;20.00;73.59;99306.67;4319207;81;28552;-79
2022/10/14 09:21:52;;;;;;;68.97;34.10;;;;;;;20.12;73.17;99305.47;4250177;83;28497;-79
2022/10/14 09:27:53;;;;;;;56.83;31.93;;;;;;;20.67;72.53;99302.41;4337834;81;28512;-78
2022/10/14 09:33:55;;;;;;;58.33;33.15;;;;;;;20.81;70.25;99313.44;4318860;80;28957;-78
2022/10/14 09:40:01;;;;;;;56.20;30.90;;;;;;;21.13;70.25;99307.02;4262739;83;28533;-79
2022/10/14 09:46:10;;;;;;;57.08;30.72;;;;;;;20.75;70.75;99309.13;4315602;81;28535;-79
2022/10/14 09:52:24;;;;;;;49.42;28.32;;;;;;;20.84;70.25;99312.08;4262634;82;28600;-78
2022/10/14 09:58:50;;;;;;;54.45;29.57;;;;;;;21.09;70.94;99304.09;4282541;82;28633;-77
2022/10/14 10:04:53;;;;;;;54.85;29.57;;;;;;;21.35;69.95;99299.59;4320552;81;28508;-78
2022/10/14 10:11:08;;;;;;;48.68;27.35;;;;;;;21.45;68.19;99290.41;4324980;81;28482;-78
2022/10/14 10:17:15;;;;;;;47.98;28.77;;;;;;;21.72;68.33;99295.22;4270798;81;28532;-78
2022/10/14 10:23:24;;;;;;;45.35;25.37;;;;;;;21.89;67.63;99288.35;4315868;81;28492;-76
2022/10/14 10:29:34;;;;;;;41.90;24.10;;;;;;;22.08;65.42;99288.84;4313265;81;28534;-78
2022/10/14 10:36:16;;;;;;;40.65;23.90;;;;;;;22.10;66.87;99288.81;4325948;81;28550;-77
2022/10/14 10:42:39;;;;;;;39.30;22.50;;;;;;;22.08;66.82;99294.33;4288428;82;28554;-76
2022/10/14 10:49:00;;;;;;;34.90;20.97;;;;;;;22.19;64.48;99276.59;4289867;81;28554;-77
2022/10/14 10:55:28;;;;;;;31.50;20.40;;;;;;;22.34;65.33;99275.48;4317193;81;28521;-77
2022/10/14 11:01:53;;;;;;;34.75;19.10;;;;;;;22.57;63.95;99270.13;4241797;81;28590;-76
2022/10/14 11:14:54;;;;;;;31.95;19.73;;;;;;;22.29;62.80;99265.44;4309658;81;28477;-78
2022/10/14 11:21:38;;;;;;;30.90;17.92;;;;;;;22.55;62.80;99259.48;4274343;81;28726;-78
2022/10/14 11:27:51;;;;;;;30.60;16.77;;;;;;;22.53;62.34;99252.69;4273460;81;28524;-77
2022/10/14 11:34:26;;;;;;;28.47;16.02;;;;;;;22.82;59.40;99252.32;4348052;80;28548;-79
2022/10/14 11:41:03;;;;;;;28.12;15.60;;;;;;;23.28;60.68;99242.00;4333985;81;28581;-79
2022/10/14 11:47:24;;;;;;;26.15;15.15;;;;;;;23.00;60.87;99240.15;4290880;83;28492;-78
2022/10/14 11:53:42;;;;;;;23.27;14.05;;;;;;;22.35;60.38;99242.87;4352225;81;28510;-77
2022/10/14 12:00:25;;;;;;;25.20;14.33;;;;;;;21.89;61.24;99244.56;4404083;80;28514;-78
2022/10/14 12:06:35;;;;;;;21.33;13.45;;;;;;;22.09;59.97;99243.38;4297339;81;28528;-78
2022/10/14 12:12:38;;;;;;;23.75;15.20;;;;;;;22.27;59.85;99233.98;4326177;81;28516;-76
2022/10/14 12:18:47;;;;;;;23.25;13.78;;;;;;;22.20;61.26;99231.66;4312002;81;28478;-77
2022/10/14 12:24:53;;;;;;;23.60;13.85;;;;;;;21.84;61.49;99219.47;4290351;81;28512;-78
2022/10/14 12:31:29;;;;;;;21.73;13.53;;;;;;;21.81;61.38;99224.73;4262341;81;28499;-77
2022/10/14 12:37:41;;;;;;;24.10;13.72;;;;;;;21.79;61.91;99222.31;4289890;82;28507;-79
2022/10/14 12:43:48;;;;;;;19.95;12.50;;;;;;;21.63;62.52;99224.48;4310128;82;28480;-79
2022/10/14 12:49:55;;;;;;;19.02;12.65;;;;;;;21.15;63.53;99220.88;4288496;82;28510;-80
2022/10/14 12:56:03;;;;;;;23.40;14.78;;;;;;;21.16;64.42;99218.97;4302009;82;28506;-83
2022/10/14 13:02:31;;;;;;;21.42;13.70;;;;;;;21.39;64.32;99222.67;4325605;81;28550;-83
2022/10/14 13:08:33;;;;;;;22.70;14.40;;;;;;;21.15;65.36;99225.55;4260474;81;28489;-83
2022/10/14 13:15:06;;;;;;;20.90;14.05;;;;;;;21.01;66.08;99218.65;4347998;80;28594;-83
2022/10/14 13:21:11;;;;;;;21.30;13.75;;;;;;;21.07;66.63;99224.28;4223661;82;28557;-83
2022/10/14 13:27:31;;;;;;;23.40;13.18;;;;;;;20.85;70.87;99225.69;4291076;82;28487;-76
2022/10/14 13:33:40;;;;;;;22.10;13.93;;;;;;;21.00;73.46;99217.83;4313238;81;28566;-77
2022/10/14 13:39:43;;;;;;;25.15;15.58;;;;;;;21.79;72.12;99209.17;4273162;81;28580;-77
2022/10/14 13:46:05;;;;;;;25.35;15.30;;;;;;;22.19;72.53;99213.61;4356957;80;28515;-77
2022/10/14 13:52:20;;;;;;;23.30;14.07;;;;;;;22.37;71.20;99209.70;4329418;81;28500;-78
2022/10/14 13:58:23;;;;;;;23.27;13.68;;;;;;;21.97;71.44;99197.34;4231889;83;28597;-78
2022/10/14 14:04:35;;;;;;;24.47;14.80;;;;;;;21.82;71.93;99200.38;4307959;80;28496;-76
2022/10/14 14:10:36;;;;;;;25.17;15.93;;;;;;;21.64;72.27;99197.92;4215635;82;28577;-76
2022/10/14 14:16:42;;;;;;;27.07;16.02;;;;;;;21.31;73.32;99192.73;4299274;80;28490;-77
2022/10/14 14:22:43;;;;;;;23.57;15.23;;;;;;;21.50;72.79;99193.24;4179840;83;28519;-77
2022/10/14 14:28:49;;;;;;;25.08;15.40;;;;;;;21.44;73.64;99190.33;4181106;83;28556;-77
2022/10/14 14:34:50;;;;;;;23.85;14.93;;;;;;;21.43;72.74;99181.88;4183922;83;29075;-77
2022/10/14 14:41:16;;;;;;;24.43;15.30;;;;;;;21.45;72.67;99186.48;4188906;83;28501;-78
2022/10/14 14:47:17;;;;;;;25.10;15.95;;;;;;;21.63;72.65;99181.26;4194852;83;28555;-78
2022/10/14 14:53:38;;;;;;;24.37;15.83;;;;;;;21.35;74.05;99181.19;4182864;82;28484;-77
2022/10/14 14:59:37;;;;;;;25.55;16.65;;;;;;;21.33;74.45;99182.05;4266953;82;28531;-78
2022/10/14 15:05:38;;;;;;;23.40;15.25;;;;;;;21.42;74.28;99176.98;4241631;82;28537;-77
2022/10/14 15:11:56;;;;;;;23.77;15.38;;;;;;;21.08;76.70;99182.16;4289561;81;28536;-80
2022/10/14 15:18:27;;;;;;;24.20;15.68;;;;;;;20.85;77.91;99172.41;4300932;81;28500;-76
2022/10/14 15:24:26;;;;;;;25.62;14.75;;;;;;;20.57;80.52;99170.89;4298179;82;28522;-77
2022/10/14 15:30:36;;;;;;;24.10;14.50;;;;;;;20.09;88.00;99167.66;4307303;82;28546;-76
2022/10/14 15:36:37;;;;;;;20.80;13.62;;;;;;;19.85;90.69;99169.02;4291792;82;28559;-77
2022/10/14 15:42:39;;;;;;;26.07;14.73;;;;;;;19.51;95.28;99166.63;4313899;82;28902;-78
2022/10/14 15:48:56;;;;;;;24.40;13.83;;;;;;;19.23;98.74;99167.16;4312960;80;28513;-77
2022/10/14 15:54:58;;;;;;;23.10;14.63;;;;;;;18.97;100.00;99166.52;4320574;81;28567;-78
2022/10/14 16:01:01;;;;;;;22.02;14.35;;;;;;;18.77;100.00;99175.09;4292913;82;28555;-78
2022/10/14 16:07:02;;;;;;;23.95;14.98;;;;;;;18.70;100.00;99171.06;4289544;82;28672;-78
2022/10/14 16:13:04;;;;;;;24.65;14.15;;;;;;;18.58;100.00;99172.76;4305777;81;28629;-76
2022/10/14 16:19:05;;;;;;;22.13;14.50;;;;;;;18.31;100.00;99166.64;4270232;81;28593;-76
2022/10/14 16:25:17;;;;;;;25.10;14.87;;;;;;;18.11;100.00;99181.95;4291976;81;28600;-78
2022/10/14 16:31:20;;;;;;;23.10;14.70;;;;;;;17.90;100.00;99185.80;4273420;82;28602;-77
2022/10/14 16:37:25;;;;;;;28.92;16.62;;;;;;;17.49;100.00;99185.31;4289561;82;28523;-81
2022/10/14 16:43:28;;;;;;;29.67;17.48;;;;;;;17.42;100.00;99195.11;4303384;81;28542;-76
2022/10/14 16:49:29;;;;;;;36.73;21.45;;;;;;;17.38;100.00;99191.32;4295150;80;28600;-78
2022/10/14 16:55:31;;;;;;;29.23;18.80;;;;;;;17.35;100.00;99188.59;4307744;81;28549;-77
2022/10/14 17:01:32;;;;;;;31.60;17.90;;;;;;;17.32;100.00;99192.40;4336935;81;28499;-78
2022/10/14 17:07:34;;;;;;;34.70;20.02;;;;;;;17.48;100.00;99195.92;4252969;81;28536;-78
2022/10/14 17:13:38;;;;;;;34.03;20.00;;;;;;;17.62;100.00;99201.63;4338526;80;28539;-80
2022/10/14 17:19:41;;;;;;;31.17;18.80;;;;;;;17.76;100.00;99204.06;4256881;81;28544;-79
2022/10/14 17:25:45;;;;;;;31.45;18.92;;;;;;;17.69;100.00;99203.52;4334028;80;28521;-78
2022/10/14 17:31:46;;;;;;;28.25;17.80;;;;;;;17.68;100.00;99205.41;4304514;82;28457;-79
2022/10/14 17:37:50;;;;;;;33.18;18.30;;;;;;;17.73;100.00;99199.16;4278194;82;28536;-78
2022/10/14 17:43:55;;;;;;;35.45;20.82;;;;;;;17.78;100.00;99203.77;4324004;81;28520;-83
2022/10/14 17:49:56;;;;;;;29.80;18.40;;;;;;;18.08;100.00;99211.08;4318065;81;28582;-79
2022/10/14 17:56:03;;;;;;;32.63;19.00;;;;;;;18.03;100.00;99203.45;4291102;81;28492;-84
2022/10/14 18:02:12;;;;;;;34.23;20.52;;;;;;;17.89;100.00;99205.38;4335316;80;28559;-79
2022/10/14 18:08:13;;;;;;;36.98;21.23;;;;;;;17.97;100.00;99204.81;4276048;81;28555;-82
2022/10/14 18:14:15;;;;;;;32.17;21.35;;;;;;;17.95;100.00;99204.28;4275383;82;28494;-82
2022/10/14 18:20:18;;;;;;;36.25;23.10;;;;;;;17.79;100.00;99206.22;4257415;82;28546;-83
2022/10/14 18:26:23;;;;;;;36.38;21.07;;;;;;;17.80;100.00;99205.66;4286317;82;28534;-81
2022/10/14 18:32:29;;;;;;;32.45;19.73;;;;;;;17.86;100.00;99189.61;4315130;81;28525;-82
2022/10/14 18:38:36;;;;;;;33.73;20.88;;;;;;;17.64;100.00;99190.75;4286309;81;28516;-81
2022/10/14 18:44:37;;;;;;;29.75;18.60;;;;;;;17.58;100.00;99186.40;4318602;80;28540;-79
2022/10/14 18:50:39;;;;;;;35.40;20.40;;;;;;;17.72;100.00;99187.21;4305680;82;28623;-82
2022/10/14 18:56:43;;;;;;;33.98;21.77;;;;;;;17.69;100.00;99185.84;4310081;82;28485;-81
2022/10/14 19:02:47;;;;;;;34.33;20.68;;;;;;;17.82;100.00;99186.63;4312404;80;28587;-80
2022/10/14 19:08:49;;;;;;;34.73;21.23;;;;;;;17.78;100.00;99191.53;4309492;81;28448;-81
2022/10/14 19:14:51;;;;;;;35.35;21.33;;;;;;;17.73;100.00;99189.63;4299389;81;28564;-81
2022/10/14 19:20:57;;;;;;;32.53;20.55;;;;;;;17.70;100.00;99191.55;4330895;80;28571;-77
2022/10/14 19:26:58;;;;;;;36.20;21.20;;;;;;;17.58;100.00;99194.55;4339637;80;28471;-81
2022/10/14 19:33:05;;;;;;;37.20;21.62;;;;;;;17.66;100.00;99187.77;4324673;81;28460;-82
2022/10/14 19:39:11;;;;;;;36.42;21.85;;;;;;;17.74;100.00;99191.27;4298217;81;28554;-81
2022/10/14 19:45:16;;;;;;;37.83;21.57;;;;;;;17.63;100.00;99188.30;4329331;80;28537;-80
2022/10/14 19:51:18;;;;;;;34.95;21.65;;;;;;;17.49;100.00;99191.58;4305506;81;28521;-81
2022/10/14 19:57:23;;;;;;;37.42;21.37;;;;;;;17.67;100.00;99186.11;4319299;80;28571;-80
2022/10/14 20:03:25;;;;;;;34.65;22.32;;;;;;;17.82;100.00;99184.47;4312793;81;28488;-80
2022/10/14 20:09:28;;;;;;;34.92;21.97;;;;;;;17.56;100.00;99183.97;4313383;81;28495;-80
2022/10/14 20:15:30;;;;;;;34.90;21.40;;;;;;;17.51;100.00;99179.09;4332717;81;28501;-82
2022/10/14 20:21:33;;;;;;;33.08;20.40;;;;;;;17.47;100.00;99184.78;4310214;81;28542;-83
2022/10/14 20:27:34;;;;;;;31.40;20.45;;;;;;;17.55;100.00;99179.63;4325712;80;28539;-83
2022/10/14 20:33:39;;;;;;;35.00;20.95;;;;;;;17.50;100.00;99180.18;4313821;80;28543;-84
2022/10/14 20:39:40;;;;;;;32.85;19.52;;;;;;;17.57;100.00;99175.25;4361535;80;28458;-81
2022/10/14 20:45:41;;;;;;;31.65;20.20;;;;;;;17.53;100.00;99172.83;4337685;81;28542;-80
2022/10/14 20:51:44;;;;;;;31.35;20.23;;;;;;;17.45;100.00;99171.48;4342994;81;28518;-81
2022/10/14 20:57:46;;;;;;;35.00;21.07;;;;;;;17.45;100.00;99178.28;4325560;81;28512;-81
2022/10/14 21:03:47;;;;;;;32.05;20.68;;;;;;;17.36;100.00;99173.13;4328568;80;28543;-80
2022/10/14 21:09:52;;;;;;;31.20;19.32;;;;;;;17.43;100.00;99161.41;4289662;81;28585;-80
2022/10/14 21:15:55;;;;;;;30.77;19.60;;;;;;;17.33;100.00;99160.06;4268160;82;28493;-79
2022/10/14 21:21:57;;;;;;;34.58;20.15;;;;;;;17.30;100.00;99155.18;4294707;81;28503;-81
2022/10/14 21:27:58;;;;;;;30.70;18.80;;;;;;;17.37;100.00;99155.16;4290133;81;28567;-82
2022/10/14 21:34:02;;;;;;;31.77;18.80;;;;;;;17.55;100.00;99151.09;4294074;82;28493;-82
2022/10/14 21:40:05;;;;;;;33.35;18.75;;;;;;;17.60;100.00;99138.56;4333009;81;28492;-81
2022/10/14 21:46:12;;;;;;;31.45;19.20;;;;;;;17.47;100.00;99135.33;4288149;82;28492;-79
2022/10/14 21:52:13;;;;;;;31.33;18.98;;;;;;;17.52;100.00;99130.43;4300890;80;28554;-79
2022/10/14 21:58:14;;;;;;;30.90;18.92;;;;;;;17.50;100.00;99128.53;4299822;80;28522;-78
2022/10/14 22:04:16;;;;;;;28.17;18.82;;;;;;;17.48;100.00;99127.44;4294289;80;28568;-80
2022/10/14 22:16:39;;;;;;;30.52;18.32;;;;;;;17.47;100.00;99130.42;4361676;80;28498;-81
2022/10/14 22:22:41;;;;;;;31.07;18.52;;;;;;;17.48;100.00;99130.69;4443758;80;28497;-80
2022/10/14 22:28:42;;;;;;;29.20;18.57;;;;;;;17.42;100.00;99125.28;4444407;80;28565;-79
2022/10/14 22:34:45;;;;;;;32.42;18.50;;;;;;;17.36;100.00;99120.13;4444602;80;28458;-80
2022/10/14 22:40:47;;;;;;;26.20;17.80;;;;;;;17.27;100.00;99122.04;4327789;81;28620;-79
2022/10/14 22:46:49;;;;;;;27.48;18.05;;;;;;;17.26;100.00;99115.51;4336427;80;28466;-80
2022/10/14 22:52:53;;;;;;;26.70;17.20;;;;;;;17.26;100.00;99116.34;4371009;80;28569;-80
2022/10/14 22:59:02;;;;;;;26.37;17.15;;;;;;;17.51;100.00;99117.37;4370098;80;28474;-81
2022/10/14 23:05:04;;;;;;;29.55;18.15;;;;;;;17.37;100.00;99114.97;4274896;81;28466;-80
2022/10/14 23:11:07;;;;;;;27.80;17.87;;;;;;;17.04;100.00;99115.81;4301881;81;28560;-80
2022/10/14 23:17:08;;;;;;;27.15;16.93;;;;;;;16.78;100.00;99130.17;4269466;81;28587;-80
2022/10/14 23:23:09;;;;;;;26.30;17.25;;;;;;;16.54;100.00;99127.94;4265983;83;28487;-80
2022/10/14 23:29:11;;;;;;;26.45;16.93;;;;;;;16.42;100.00;99123.31;4237774;82;28499;-81
2022/10/14 23:35:17;;;;;;;31.93;17.42;;;;;;;16.23;100.00;99123.80;4254866;83;28549;-82
2022/10/14 23:41:16;;;;;;;28.27;16.40;;;;;;;15.96;100.00;99121.26;4276925;81;28527;-82
2022/10/14 23:47:17;;;;;;;28.67;17.62;;;;;;;15.82;100.00;99116.83;4266511;81;28484;-81
2022/10/14 23:53:19;;;;;;;24.35;16.17;;;;;;;15.60;100.00;99110.50;4285277;83;28505;-81
2022/10/14 23:59:23;;;;;;;27.75;17.95;;;;;;;15.59;100.00;99111.58;4245500;83;28498;-81
